createdAt,value
2022-08-29T00:01:11.261Z,5.85
2022-08-29T00:03:38.837Z,4.82
2022-08-29T00:06:08.203Z,5.50
2022-08-29T00:08:35.405Z,5.60
2022-08-29T00:11:03.044Z,5.33
2022-08-29T00:13:30.434Z,5.53
2022-08-29T00:15:57.535Z,6.30
2022-08-29T00:18:24.814Z,5.80
2022-08-29T00:20:52.529Z,5.43
2022-08-29T00:23:19.776Z,5.90
2022-08-29T00:25:47.080Z,5.60
2022-08-29T00:28:14.424Z,5.88
2022-08-29T00:30:42.440Z,5.53
2022-08-29T00:33:09.895Z,6.13
2022-08-29T00:35:41.197Z,6.53
2022-08-29T00:38:12.174Z,6.15
2022-08-29T00:40:51.642Z,6.18
2022-08-29T00:43:25.344Z,6.18
2022-08-29T00:46:10.830Z,6.55
2022-08-29T00:48:41.076Z,6.10
2022-08-29T00:51:16.749Z,6.15
2022-08-29T00:53:52.755Z,6.10
2022-08-29T00:56:21.234Z,5.83
2022-08-29T00:58:55.558Z,6.63
2022-08-29T01:01:23.290Z,6.38
2022-08-29T01:03:52.399Z,5.63
2022-08-29T01:06:21.664Z,5.78
2022-08-29T01:08:49.057Z,6.28
2022-08-29T01:11:46.553Z,6.07
2022-08-29T01:14:15.719Z,5.38
2022-08-29T01:16:44.172Z,4.82
2022-08-29T01:19:46.399Z,5.40
2022-08-29T01:22:39.309Z,5.00
2022-08-29T01:25:13.453Z,3.88
2022-08-29T01:27:47.750Z,5.20
2022-08-29T01:30:15.445Z,5.05
2022-08-29T01:32:43.265Z,4.70
2022-08-29T01:35:10.912Z,5.13
2022-08-29T01:37:41.838Z,4.65
2022-08-29T01:40:11.557Z,4.40
2022-08-29T01:42:39.450Z,4.35
2022-08-29T01:45:09.880Z,4.82
2022-08-29T01:47:38.947Z,5.13
2022-08-29T01:50:16.255Z,4.80
2022-08-29T01:52:43.654Z,4.82
2022-08-29T01:55:11.531Z,4.97
2022-08-29T01:57:39.928Z,4.75
2022-08-29T02:00:10.985Z,4.70
2022-08-29T02:02:40.354Z,4.00
2022-08-29T02:05:09.681Z,3.60
2022-08-29T02:07:36.655Z,3.63
2022-08-29T02:10:05.812Z,3.67
2022-08-29T02:12:33.349Z,3.28
2022-08-29T02:15:00.507Z,3.67
2022-08-29T02:17:28.088Z,3.08
2022-08-29T02:19:55.099Z,2.92
2022-08-29T02:22:22.146Z,2.83
2022-08-29T02:24:49.106Z,3.40
2022-08-29T02:27:16.143Z,2.58
2022-08-29T02:29:43.365Z,2.95
2022-08-29T02:32:14.787Z,2.72
2022-08-29T02:34:47.721Z,2.50
2022-08-29T02:37:16.827Z,3.00
2022-08-29T02:39:43.931Z,2.28
2022-08-29T02:42:11.018Z,2.38
2022-08-29T02:44:38.254Z,2.83
2022-08-29T02:47:05.611Z,3.00
2022-08-29T02:49:32.691Z,2.80
2022-08-29T02:52:02.435Z,3.05
2022-08-29T02:54:29.790Z,2.70
2022-08-29T02:56:56.754Z,3.08
2022-08-29T02:59:23.773Z,2.03
2022-08-29T03:01:50.918Z,1.90
2022-08-29T03:04:18.006Z,1.67
2022-08-29T03:06:47.161Z,1.30
2022-08-29T03:09:14.186Z,1.60
2022-08-29T03:11:41.205Z,1.40
2022-08-29T03:14:08.857Z,1.60
2022-08-29T03:16:36.631Z,1.30
2022-08-29T03:19:03.730Z,1.50
2022-08-29T03:21:33.360Z,1.63
2022-08-29T03:24:00.414Z,1.70
2022-08-29T03:26:27.407Z,1.70
2022-08-29T03:28:54.374Z,1.90
2022-08-29T03:31:22.230Z,1.83
2022-08-29T03:33:49.474Z,2.40
2022-08-29T03:36:16.545Z,1.80
2022-08-29T03:38:46.346Z,1.63
2022-08-29T03:41:22.857Z,1.93
2022-08-29T03:43:50.488Z,2.40
2022-08-29T03:46:17.820Z,1.90
2022-08-29T03:48:44.977Z,1.70
2022-08-29T03:51:12.049Z,1.48
2022-08-29T03:53:40.732Z,1.23
2022-08-29T03:56:09.351Z,1.25
2022-08-29T03:58:39.055Z,1.13
2022-08-29T04:01:06.566Z,1.17
2022-08-29T04:03:33.590Z,0.85
2022-08-29T04:06:00.787Z,0.90
2022-08-29T04:08:27.812Z,1.10
2022-08-29T04:10:54.807Z,1.60
2022-08-29T04:13:21.943Z,1.33
2022-08-29T04:15:48.942Z,1.42
2022-08-29T04:18:21.481Z,1.65
2022-08-29T04:20:49.447Z,2.00
2022-08-29T04:23:16.604Z,1.60
2022-08-29T04:25:44.649Z,1.75
2022-08-29T04:28:14.796Z,1.50
2022-08-29T04:30:51.832Z,1.37
2022-08-29T04:33:24.288Z,1.25
2022-08-29T04:35:52.721Z,1.63
2022-08-29T04:38:20.016Z,1.73
2022-08-29T04:40:47.420Z,1.50
2022-08-29T04:43:14.878Z,1.30
2022-08-29T04:45:42.099Z,1.45
2022-08-29T04:48:10.798Z,1.02
2022-08-29T04:50:38.973Z,1.13
2022-08-29T04:53:05.936Z,1.50
2022-08-29T04:55:33.104Z,1.45
2022-08-29T04:58:00.444Z,1.57
2022-08-29T05:00:30.189Z,1.33
2022-08-29T05:02:58.199Z,1.13
2022-08-29T05:05:25.593Z,1.33
2022-08-29T05:07:53.777Z,1.27
2022-08-29T05:10:22.485Z,1.10
2022-08-29T05:12:49.923Z,1.00
2022-08-29T05:15:18.618Z,1.10
2022-08-29T05:17:45.859Z,1.25
2022-08-29T05:20:13.872Z,1.10
2022-08-29T05:22:42.326Z,0.93
2022-08-29T05:25:17.964Z,1.10
2022-08-29T05:27:45.991Z,0.90
2022-08-29T05:30:13.273Z,1.25
2022-08-29T05:32:40.310Z,1.13
2022-08-29T05:35:07.774Z,1.20
2022-08-29T05:37:34.859Z,0.97
2022-08-29T05:40:03.295Z,1.03
2022-08-29T05:42:30.427Z,1.15
2022-08-29T05:44:58.629Z,0.87
2022-08-29T05:47:25.601Z,1.63
2022-08-29T05:49:52.619Z,2.17
2022-08-29T05:52:21.502Z,1.87
2022-08-29T05:54:49.261Z,1.27
2022-08-29T05:57:23.299Z,1.03
2022-08-29T05:59:53.612Z,1.20
2022-08-29T06:02:22.944Z,1.30
2022-08-29T06:04:50.677Z,0.90
2022-08-29T06:07:18.849Z,1.10
2022-08-29T06:09:46.378Z,1.20
2022-08-29T06:12:15.607Z,1.30
2022-08-29T06:14:50.187Z,1.00
2022-08-29T06:17:17.797Z,1.15
2022-08-29T06:19:45.082Z,1.17
2022-08-29T06:22:13.174Z,0.90
2022-08-29T06:24:40.661Z,1.10
2022-08-29T06:27:12.681Z,1.10
2022-08-29T06:29:43.258Z,1.00
2022-08-29T06:32:12.843Z,0.90
2022-08-29T06:34:40.260Z,0.75
2022-08-29T06:37:07.317Z,0.65
2022-08-29T06:39:34.502Z,0.95
2022-08-29T06:42:01.622Z,0.95
2022-08-29T06:44:31.055Z,0.70
2022-08-29T06:46:59.291Z,0.80
2022-08-29T06:49:27.705Z,1.10
2022-08-29T06:51:58.049Z,0.80
2022-08-29T06:54:28.703Z,0.90
2022-08-29T06:56:57.769Z,0.70
2022-08-29T06:59:25.225Z,0.50
2022-08-29T07:01:52.813Z,0.60
2022-08-29T07:04:20.976Z,0.60
2022-08-29T07:06:49.386Z,0.60
2022-08-29T07:09:17.571Z,0.60
2022-08-29T07:11:44.953Z,0.80
2022-08-29T07:14:14.250Z,1.15
2022-08-29T07:16:43.206Z,0.65
2022-08-29T07:19:11.683Z,0.70
2022-08-29T07:21:39.793Z,0.43
2022-08-29T07:24:09.138Z,0.82
2022-08-29T07:26:42.756Z,0.63
2022-08-29T07:29:18.385Z,0.70
2022-08-29T07:31:47.560Z,0.70
2022-08-29T07:34:15.653Z,0.80
2022-08-29T07:36:43.302Z,0.60
2022-08-29T07:39:16.489Z,1.00
2022-08-29T07:41:44.808Z,1.02
2022-08-29T07:44:13.695Z,0.90
2022-08-29T07:46:42.232Z,0.82
2022-08-29T07:49:09.747Z,0.90
2022-08-29T07:51:36.765Z,0.80
2022-08-29T07:54:06.613Z,0.93
2022-08-29T07:56:41.072Z,1.10
2022-08-29T07:59:08.642Z,0.70
2022-08-29T08:01:37.034Z,1.00
2022-08-29T08:04:05.589Z,0.60
2022-08-29T08:06:36.915Z,0.70
2022-08-29T08:09:06.353Z,0.70
2022-08-29T08:11:35.077Z,0.70
2022-08-29T08:14:03.389Z,0.70
2022-08-29T08:16:32.809Z,0.77
2022-08-29T08:19:00.563Z,0.93
2022-08-29T08:21:28.114Z,0.90
2022-08-29T08:23:55.695Z,0.70
2022-08-29T08:26:23.659Z,0.70
2022-08-29T08:28:52.201Z,0.70
2022-08-29T08:31:23.576Z,0.80
2022-08-29T08:33:52.170Z,0.80
2022-08-29T08:36:29.405Z,1.08
2022-08-29T08:39:00.031Z,0.90
2022-08-29T08:41:27.557Z,0.80
2022-08-29T08:44:07.135Z,0.70
2022-08-29T08:46:44.246Z,0.50
2022-08-29T08:49:40.487Z,0.70
2022-08-29T08:52:16.603Z,0.60
2022-08-29T08:54:58.146Z,0.70
2022-08-29T08:57:46.425Z,0.95
2022-08-29T09:00:14.026Z,0.60
2022-08-29T09:03:05.116Z,0.60
2022-08-29T09:06:04.015Z,0.70
2022-08-29T09:09:03.737Z,0.70
2022-08-29T09:12:06.805Z,0.68
2022-08-29T09:14:56.751Z,0.52
2022-08-29T09:17:42.161Z,0.60
2022-08-29T09:20:22.323Z,0.52
2022-08-29T09:23:18.494Z,0.80
2022-08-29T09:25:46.840Z,0.70
2022-08-29T09:28:14.685Z,0.50
2022-08-29T09:31:05.568Z,0.88
2022-08-29T09:33:45.635Z,0.90
2022-08-29T09:36:41.958Z,0.63
2022-08-29T09:39:24.209Z,0.80
2022-08-29T09:41:58.979Z,0.65
2022-08-29T09:44:35.822Z,0.85
2022-08-29T09:47:13.083Z,0.68
2022-08-29T09:50:01.879Z,0.60
2022-08-29T09:52:29.275Z,0.70
2022-08-29T09:54:56.782Z,0.63
2022-08-29T09:57:28.652Z,0.60
2022-08-29T10:00:23.821Z,0.70
2022-08-29T10:02:56.985Z,0.65
2022-08-29T10:05:46.235Z,0.68
2022-08-29T10:08:38.633Z,0.63
2022-08-29T10:11:56.640Z,0.70
2022-08-29T10:14:53.357Z,0.63
2022-08-29T10:17:57.024Z,0.68
2022-08-29T10:20:43.911Z,0.73
2022-08-29T10:23:47.461Z,0.95
2022-08-29T10:26:48.332Z,0.73
2022-08-29T10:29:39.715Z,0.70
2022-08-29T10:32:27.630Z,0.93
2022-08-29T10:35:28.235Z,0.93
2022-08-29T10:38:41.061Z,0.70
2022-08-29T10:41:47.116Z,0.88
2022-08-29T10:45:00.023Z,0.73
2022-08-29T10:48:11.600Z,0.75
2022-08-29T10:51:03.077Z,0.75
2022-08-29T10:53:46.791Z,0.80
2022-08-29T10:56:40.611Z,0.90
2022-08-29T10:59:42.211Z,1.00
2022-08-29T11:02:36.298Z,0.93
2022-08-29T11:05:14.034Z,1.00
2022-08-29T11:07:56.319Z,0.90
2022-08-29T11:10:31.975Z,1.10
2022-08-29T11:13:26.760Z,0.90
2022-08-29T11:16:02.248Z,1.63
2022-08-29T11:18:47.276Z,1.30
2022-08-29T11:21:46.853Z,1.30
2022-08-29T11:24:18.568Z,1.10
2022-08-29T11:27:02.102Z,1.13
2022-08-29T11:30:08.211Z,1.00
2022-08-29T11:33:04.435Z,0.93
2022-08-29T11:35:44.384Z,1.27
2022-08-29T11:38:45.641Z,1.42
2022-08-29T11:41:41.962Z,1.30
2022-08-29T11:44:29.511Z,1.23
2022-08-29T11:46:58.959Z,1.00
2022-08-29T11:49:30.524Z,1.00
2022-08-29T11:52:20.287Z,1.25
2022-08-29T11:55:22.855Z,1.60
2022-08-29T11:58:03.815Z,1.20
2022-08-29T12:00:40.983Z,1.30
2022-08-29T12:03:33.155Z,1.73
2022-08-29T12:06:26.583Z,1.42
2022-08-29T12:09:13.291Z,1.55
2022-08-29T12:11:59.314Z,1.50
2022-08-29T12:14:44.250Z,1.25
2022-08-29T12:17:51.420Z,1.88
2022-08-29T12:20:40.723Z,1.60
2022-08-29T12:23:18.810Z,1.52
2022-08-29T12:26:21.524Z,1.63
2022-08-29T12:28:59.328Z,1.63
2022-08-29T12:32:18.869Z,1.48
2022-08-29T12:35:24.150Z,1.60
2022-08-29T12:38:08.476Z,1.65
2022-08-29T12:41:18.518Z,1.23
2022-08-29T12:43:47.480Z,1.40
2022-08-29T12:46:31.575Z,1.20
2022-08-29T12:49:27.037Z,1.30
2022-08-29T12:52:04.613Z,1.13
2022-08-29T12:54:45.969Z,1.30
2022-08-29T12:57:35.097Z,1.40
2022-08-29T13:00:15.918Z,2.13
2022-08-29T13:03:20.399Z,1.15
2022-08-29T13:05:51.281Z,1.40
2022-08-29T13:08:33.754Z,1.45
2022-08-29T13:11:10.125Z,1.58
2022-08-29T13:13:38.846Z,1.65
2022-08-29T13:16:23.337Z,1.25
2022-08-29T13:19:09.657Z,1.52
2022-08-29T13:21:41.642Z,1.38
2022-08-29T13:24:19.776Z,1.20
2022-08-29T13:27:04.560Z,1.50
2022-08-29T13:29:42.566Z,1.25
2022-08-29T13:32:26.861Z,1.40
2022-08-29T13:35:17.959Z,1.70
2022-08-29T13:38:20.362Z,1.42
2022-08-29T13:40:59.042Z,1.50
2022-08-29T13:43:45.818Z,1.70
2022-08-29T13:46:15.013Z,1.23
2022-08-29T13:48:44.341Z,1.50
2022-08-29T13:51:14.539Z,2.13
2022-08-29T13:53:50.863Z,1.27
2022-08-29T13:56:33.551Z,1.70
2022-08-29T13:59:05.125Z,1.70
2022-08-29T14:04:37.405Z,1.90
2022-08-29T14:07:08.748Z,1.75
2022-08-29T14:09:41.895Z,2.00
2022-08-29T14:12:14.016Z,2.00
2022-08-29T14:14:45.702Z,2.22
2022-08-29T14:17:18.921Z,1.70
2022-08-29T14:19:47.397Z,2.20
2022-08-29T14:22:15.254Z,2.10
2022-08-29T14:24:51.319Z,1.75
2022-08-29T14:27:21.077Z,1.90
2022-08-29T14:29:49.464Z,2.00
2022-08-29T14:32:17.295Z,1.75
2022-08-29T14:34:45.474Z,1.73
2022-08-29T14:37:18.760Z,1.70
2022-08-29T14:39:49.713Z,1.90
2022-08-29T14:42:18.833Z,1.70
2022-08-29T14:44:46.272Z,2.53
2022-08-29T14:47:13.684Z,1.92
2022-08-29T14:49:41.212Z,2.10
2022-08-29T14:52:09.096Z,2.30
2022-08-29T14:54:36.088Z,1.58
2022-08-29T14:57:03.746Z,2.30
2022-08-29T14:59:34.073Z,2.22
2022-08-29T15:02:05.583Z,1.60
2022-08-29T15:04:37.780Z,1.60
2022-08-29T15:07:11.968Z,1.58
2022-08-29T15:09:41.962Z,1.88
2022-08-29T15:12:10.817Z,2.15
2022-08-29T15:14:38.113Z,1.35
2022-08-29T15:17:06.244Z,1.50
2022-08-29T15:22:22.344Z,1.70
2022-08-29T15:24:51.316Z,2.00
2022-08-29T15:27:26.814Z,2.63
2022-08-29T15:29:55.346Z,2.03
2022-08-29T15:32:22.623Z,2.30
2022-08-29T15:34:50.276Z,1.95
2022-08-29T15:37:17.997Z,2.30
2022-08-29T15:39:45.141Z,2.73
2022-08-29T15:42:13.654Z,2.83
2022-08-29T15:44:44.750Z,2.08
2022-08-29T15:47:11.973Z,1.80
2022-08-29T15:49:39.617Z,2.05
2022-08-29T15:52:07.043Z,3.20
2022-08-29T15:54:35.478Z,2.00
2022-08-29T15:57:02.697Z,1.40
2022-08-29T15:59:56.155Z,1.67
2022-08-29T16:02:17.879Z,1.97
2022-08-29T16:04:47.646Z,2.00
2022-08-29T16:07:17.075Z,1.60
2022-08-29T16:09:45.305Z,1.50
2022-08-29T16:12:12.618Z,1.40
2022-08-29T16:14:59.135Z,1.25
2022-08-29T16:17:31.036Z,1.55
2022-08-29T16:20:02.300Z,2.63
2022-08-29T16:22:30.495Z,1.50
2022-08-29T16:24:58.439Z,1.43
2022-08-29T16:27:25.920Z,1.87
2022-08-29T16:29:54.105Z,1.67
2022-08-29T16:32:21.676Z,1.80
2022-08-29T16:34:49.300Z,1.67
2022-08-29T16:37:16.344Z,1.83
2022-08-29T16:39:43.572Z,2.40
2022-08-29T16:42:14.282Z,1.70
2022-08-29T16:44:50.577Z,2.10
2022-08-29T16:47:20.866Z,1.60
2022-08-29T16:49:48.607Z,2.03
2022-08-29T16:52:18.905Z,1.60
2022-08-29T16:54:46.391Z,1.90
2022-08-29T16:57:13.565Z,1.60
2022-08-29T16:59:41.237Z,1.50
2022-08-29T17:02:08.738Z,1.90
2022-08-29T17:04:36.810Z,1.33
2022-08-29T17:07:04.203Z,1.30
2022-08-29T17:09:31.395Z,1.67
2022-08-29T17:11:59.960Z,1.80
2022-08-29T17:14:29.443Z,1.90
2022-08-29T17:16:56.879Z,1.80
2022-08-29T17:19:24.566Z,2.30
2022-08-29T17:21:51.985Z,1.83
2022-08-29T17:24:20.267Z,1.90
2022-08-29T17:26:48.574Z,1.50
2022-08-29T17:29:17.086Z,1.40
2022-08-29T17:31:44.881Z,2.00
2022-08-29T17:34:12.804Z,1.70
2022-08-29T17:36:43.537Z,2.20
2022-08-29T17:39:12.166Z,1.90
2022-08-29T17:41:40.416Z,1.70
2022-08-29T17:44:09.977Z,1.80
2022-08-29T17:46:37.272Z,2.20
2022-08-29T17:49:08.098Z,1.73
2022-08-29T17:51:37.198Z,1.60
2022-08-29T17:54:12.405Z,2.53
2022-08-29T17:56:49.523Z,1.93
2022-08-29T17:59:19.242Z,1.83
2022-08-29T18:01:50.466Z,2.00
2022-08-29T18:04:17.541Z,1.70
2022-08-29T18:06:45.233Z,1.63
2022-08-29T18:09:13.303Z,1.40
2022-08-29T18:11:46.571Z,1.90
2022-08-29T18:14:13.662Z,1.70
2022-08-29T18:16:40.747Z,1.37
2022-08-29T18:19:08.396Z,2.03
2022-08-29T18:21:36.043Z,1.57
2022-08-29T18:24:03.790Z,1.20
2022-08-29T18:26:34.031Z,1.70
2022-08-29T18:29:01.240Z,1.75
2022-08-29T18:31:28.793Z,1.80
2022-08-29T18:34:00.717Z,1.88
2022-08-29T18:36:35.478Z,1.77
2022-08-29T18:39:05.292Z,1.50
2022-08-29T18:41:32.674Z,1.40
2022-08-29T18:43:59.802Z,2.10
2022-08-29T18:46:28.537Z,2.10
2022-08-29T18:48:56.134Z,1.20
2022-08-29T18:51:23.181Z,1.60
2022-08-29T18:53:50.183Z,1.10
2022-08-29T18:56:17.317Z,1.50
2022-08-29T18:58:44.689Z,1.33
2022-08-29T19:01:19.312Z,1.10
2022-08-29T19:04:00.174Z,1.30
2022-08-29T19:06:28.220Z,1.53
2022-08-29T19:08:57.056Z,1.27
2022-08-29T19:11:26.953Z,1.10
2022-08-29T19:13:54.447Z,1.30
2022-08-29T19:16:23.831Z,1.57
2022-08-29T19:18:52.272Z,1.43
2022-08-29T19:21:19.937Z,1.30
2022-08-29T19:23:52.425Z,1.60
2022-08-29T19:26:35.595Z,1.10
2022-08-29T19:29:12.443Z,1.97
2022-08-29T19:31:42.485Z,1.40
2022-08-29T19:34:09.579Z,1.30
2022-08-29T19:36:36.867Z,1.80
2022-08-29T19:39:04.029Z,1.17
2022-08-29T19:41:34.764Z,1.52
2022-08-29T19:44:02.372Z,1.50
2022-08-29T19:46:29.610Z,1.30
2022-08-29T19:48:56.698Z,1.40
2022-08-29T19:51:25.490Z,1.20
2022-08-29T19:53:57.458Z,1.08
2022-08-29T19:56:29.241Z,1.20
2022-08-29T19:58:56.819Z,1.20
2022-08-29T20:01:24.140Z,1.00
2022-08-29T20:03:52.270Z,1.20
2022-08-29T20:06:20.548Z,1.00
2022-08-29T20:08:47.604Z,1.40
2022-08-29T20:11:21.287Z,1.15
2022-08-29T20:13:51.883Z,1.47
2022-08-29T20:16:23.027Z,1.20
2022-08-29T20:18:52.154Z,1.43
2022-08-29T20:21:21.337Z,0.90
2022-08-29T20:23:57.088Z,0.90
2022-08-29T20:26:32.968Z,1.10
2022-08-29T20:29:02.246Z,1.33
2022-08-29T20:31:29.540Z,1.23
2022-08-29T20:33:56.832Z,1.37
2022-08-29T20:36:44.495Z,1.38
2022-08-29T20:39:16.440Z,0.90
2022-08-29T20:41:50.513Z,0.90
2022-08-29T20:44:20.331Z,1.00
2022-08-29T20:46:49.359Z,0.80
2022-08-29T20:49:23.554Z,1.13
2022-08-29T20:51:52.322Z,0.97
2022-08-29T20:54:24.311Z,0.80
2022-08-29T20:56:52.281Z,1.00
2022-08-29T20:59:21.633Z,0.90
2022-08-29T21:01:50.261Z,1.10
2022-08-29T21:04:36.386Z,1.10
2022-08-29T21:07:08.789Z,1.23
2022-08-29T21:09:36.949Z,0.60
2022-08-29T21:12:04.215Z,0.70
2022-08-29T21:14:31.187Z,0.80
2022-08-29T21:16:58.604Z,0.80
2022-08-29T21:19:31.825Z,0.90
2022-08-29T21:22:01.806Z,1.00
2022-08-29T21:24:30.411Z,0.90
2022-08-29T21:26:58.325Z,0.93
2022-08-29T21:29:25.389Z,0.95
2022-08-29T21:31:54.039Z,1.00
2022-08-29T21:34:22.486Z,1.00
2022-08-29T21:36:49.759Z,1.00
2022-08-29T21:39:28.025Z,0.87
2022-08-29T21:41:57.561Z,0.97
2022-08-29T21:44:24.543Z,1.10
2022-08-29T21:46:52.675Z,1.03
2022-08-29T21:49:21.781Z,1.00
2022-08-29T21:51:49.453Z,0.80
2022-08-29T21:54:18.097Z,0.60
2022-08-29T21:56:46.679Z,0.90
2022-08-29T21:59:16.387Z,0.83
2022-08-29T22:01:45.733Z,1.10
2022-08-29T22:04:27.756Z,1.00
2022-08-29T22:06:56.655Z,0.70
2022-08-29T22:09:23.691Z,0.73
2022-08-29T22:11:51.884Z,0.90
2022-08-29T22:14:18.994Z,1.07
2022-08-29T22:16:46.313Z,0.90
2022-08-29T22:19:17.398Z,0.70
2022-08-29T22:21:54.480Z,1.03
2022-08-29T22:24:21.609Z,1.00
2022-08-29T22:26:48.660Z,0.80
2022-08-29T22:29:19.959Z,1.13
2022-08-29T22:31:47.293Z,1.00
2022-08-29T22:34:17.628Z,0.98
2022-08-29T22:36:45.052Z,1.00
2022-08-29T22:39:12.218Z,1.10
2022-08-29T22:41:41.318Z,1.00
2022-08-29T22:47:00.419Z,1.37
2022-08-29T22:49:33.324Z,1.27
2022-08-29T22:52:01.426Z,1.20
2022-08-29T22:54:37.600Z,1.10
2022-08-29T22:57:13.680Z,1.30
2022-08-29T22:59:43.109Z,1.10
2022-08-29T23:02:12.443Z,1.00
2022-08-29T23:04:40.141Z,1.10
2022-08-29T23:07:08.904Z,1.20
2022-08-29T23:09:42.292Z,0.80
2022-08-29T23:12:11.701Z,0.90
2022-08-29T23:14:43.117Z,1.00
2022-08-29T23:17:10.156Z,1.10
2022-08-29T23:19:40.977Z,1.03
2022-08-29T23:22:11.319Z,1.00
2022-08-29T23:24:53.766Z,0.98
2022-08-29T23:27:31.944Z,1.30
2022-08-29T23:30:00.731Z,1.30
2022-08-29T23:32:28.947Z,1.17
2022-08-29T23:34:56.813Z,1.40
2022-08-29T23:37:25.376Z,1.30
2022-08-29T23:39:52.457Z,1.00
2022-08-29T23:42:19.616Z,1.10
2022-08-29T23:44:48.313Z,0.93
2022-08-29T23:47:16.136Z,0.90
2022-08-29T23:49:43.529Z,1.07
2022-08-29T23:52:10.897Z,1.00
2022-08-29T23:54:38.120Z,0.80
2022-08-29T23:57:05.314Z,1.00
2022-08-29T23:59:54.004Z,1.20
